sensor_id;sensor_type;location;lat;lon;timestamp;pressure;altitude;pressure_sealevel;temperature;humidity
49367;BME280;35245;52.026;8.540;2024-02-14T00:00:13;51504.31;;;-145.42;100.00
49367;BME280;35245;52.026;8.540;2024-02-14T00:02:40;51524.13;;;-145.42;100.00
49367;BME280;35245;52.026;8.540;2024-02-14T00:05:08;51474.56;;;-145.42;100.00
49367;BME280;35245;52.026;8.540;2024-02-14T00:07:36;51536.03;;;-145.42;100.00
49367;BME280;35245;52.026;8.540;2024-02-14T00:10:04;51670.84;;;-145.42;100.00
49367;BME280;35245;52.026;8.540;2024-02-14T00:12:34;51829.44;;;-145.42;100.00
49367;BME280;35245;52.026;8.540;2024-02-14T00:15:01;51781.84;;;-145.42;100.00
49367;BME280;35245;52.026;8.540;2024-02-14T00:17:29;51760.06;;;-145.42;100.00
49367;BME280;35245;52.026;8.540;2024-02-14T00:19:56;51783.84;;;-145.42;100.00
49367;BME280;35245;52.026;8.540;2024-02-14T00:22:23;51664.88;;;-145.42;100.00
49367;BME280;35245;52.026;8.540;2024-02-14T00:24:51;51569.72;;;-145.42;100.00
49367;BME280;35245;52.026;8.540;2024-02-14T00:27:18;51613.34;;;-145.42;100.00
49367;BME280;35245;52.026;8.540;2024-02-14T00:29:46;51591.53;;;-145.42;100.00
49367;BME280;35245;52.026;8.540;2024-02-14T00:32:14;51595.50;;;-145.42;100.00
49367;BME280;35245;52.026;8.540;2024-02-14T00:34:41;51656.97;;;-145.42;100.00
49367;BME280;35245;52.026;8.540;2024-02-14T00:37:09;51621.28;;;-145.42;100.00
49367;BME280;35245;52.026;8.540;2024-02-14T00:39:36;51615.31;;;-145.42;100.00
49367;BME280;35245;52.026;8.540;2024-02-14T00:42:04;51615.31;;;-145.42;100.00
49367;BME280;35245;52.026;8.540;2024-02-14T00:44:31;51714.44;;;-145.42;100.00
49367;BME280;35245;52.026;8.540;2024-02-14T00:47:00;51653.00;;;-145.42;100.00
49367;BME280;35245;52.026;8.540;2024-02-14T00:49:28;51742.22;;;-145.42;100.00
49367;BME280;35245;52.026;8.540;2024-02-14T00:51:55;51744.19;;;-145.42;100.00
49367;BME280;35245;52.026;8.540;2024-02-14T00:54:22;51791.78;;;-145.42;100.00
49367;BME280;35245;52.026;8.540;2024-02-14T00:56:49;51752.13;;;-145.42;100.00
49367;BME280;35245;52.026;8.540;2024-02-14T00:59:16;51744.19;;;-145.42;100.00
49367;BME280;35245;52.026;8.540;2024-02-14T01:01:43;51744.19;;;-145.42;100.00
49367;BME280;35245;52.026;8.540;2024-02-14T01:04:12;51736.25;;;-145.42;100.00
49367;BME280;35245;52.026;8.540;2024-02-14T01:06:40;51736.25;;;-145.42;100.00
49367;BME280;35245;52.026;8.540;2024-02-14T01:09:07;51805.66;;;-145.42;100.00
49367;BME280;35245;52.026;8.540;2024-02-14T01:11:34;51775.91;;;-145.42;100.00
49367;BME280;35245;52.026;8.540;2024-02-14T01:14:02;51813.56;;;-145.42;100.00
49367;BME280;35245;52.026;8.540;2024-02-14T01:16:29;51750.13;;;-145.42;100.00
49367;BME280;35245;52.026;8.540;2024-02-14T01:18:56;51779.88;;;-145.42;100.00
49367;BME280;35245;52.026;8.540;2024-02-14T01:21:25;51809.63;;;-145.42;100.00
49367;BME280;35245;52.026;8.540;2024-02-14T01:23:52;51869.09;;;-145.42;100.00
49367;BME280;35245;52.026;8.540;2024-02-14T01:26:19;52055.47;;;-145.42;100.00
49367;BME280;35245;52.026;8.540;2024-02-14T01:28:47;52049.50;;;-145.42;100.00
49367;BME280;35245;52.026;8.540;2024-02-14T01:31:14;52753.44;;;-145.42;100.00
49367;BME280;35245;52.026;8.540;2024-02-14T01:33:41;53187.75;;;-145.42;100.00
49367;BME280;35245;52.026;8.540;2024-02-14T01:36:09;53429.72;;;-145.42;100.00
49367;BME280;35245;52.026;8.540;2024-02-14T01:38:37;53626.09;;;-145.42;100.00
49367;BME280;35245;52.026;8.540;2024-02-14T01:41:05;53292.88;;;-145.42;100.00
49367;BME280;35245;52.026;8.540;2024-02-14T01:43:33;53520.97;;;-145.42;100.00
49367;BME280;35245;52.026;8.540;2024-02-14T01:46:05;53630.06;;;-145.42;100.00
49367;BME280;35245;52.026;8.540;2024-02-14T01:48:34;53554.69;;;-145.42;100.00
49367;BME280;35245;52.026;8.540;2024-02-14T01:51:03;53568.56;;;-145.42;100.00
49367;BME280;35245;52.026;8.540;2024-02-14T01:53:33;53887.94;;;-145.42;100.00
49367;BME280;35245;52.026;8.540;2024-02-14T01:56:02;54131.91;;;-145.42;100.00
49367;BME280;35245;52.026;8.540;2024-02-14T01:58:30;54574.31;;;-145.42;100.00
49367;BME280;35245;52.026;8.540;2024-02-14T02:00:57;54782.66;;;-145.42;100.00
49367;BME280;35245;52.026;8.540;2024-02-14T02:03:25;54715.19;;;-145.42;100.00
49367;BME280;35245;52.026;8.540;2024-02-14T02:05:53;54768.75;;;-145.42;100.00
49367;BME280;35245;52.026;8.540;2024-02-14T02:08:21;54651.69;;;-145.42;100.00
49367;BME280;35245;52.026;8.540;2024-02-14T02:10:48;54449.34;;;-145.42;100.00
49367;BME280;35245;52.026;8.540;2024-02-14T02:13:17;54389.81;;;-145.42;100.00
49367;BME280;35245;52.026;8.540;2024-02-14T02:15:45;54229.13;;;-145.42;100.00
49367;BME280;35245;52.026;8.540;2024-02-14T02:18:12;54215.25;;;-145.42;100.00
49367;BME280;35245;52.026;8.540;2024-02-14T02:20:40;54296.56;;;-145.42;100.00
49367;BME280;35245;52.026;8.540;2024-02-14T02:23:10;54173.56;;;-145.42;100.00
49367;BME280;35245;52.026;8.540;2024-02-14T02:25:40;53959.34;;;-145.42;100.00
49367;BME280;35245;52.026;8.540;2024-02-14T02:28:08;54084.31;;;-145.42;100.00
49367;BME280;35245;52.026;8.540;2024-02-14T02:30:35;54004.97;;;-145.42;100.00
49367;BME280;35245;52.026;8.540;2024-02-14T02:33:03;54080.34;;;-145.42;100.00
49367;BME280;35245;52.026;8.540;2024-02-14T02:35:31;54072.41;;;-145.42;100.00
49367;BME280;35245;52.026;8.540;2024-02-14T02:37:58;53999.00;;;-145.42;100.00
49367;BME280;35245;52.026;8.540;2024-02-14T02:40:27;53816.50;;;-145.42;100.00
49367;BME280;35245;52.026;8.540;2024-02-14T02:42:54;53818.50;;;-145.42;100.00
49367;BME280;35245;52.026;8.540;2024-02-14T02:45:21;53820.47;;;-145.42;100.00
49367;BME280;35245;52.026;8.540;2024-02-14T02:47:49;53927.59;;;-145.42;100.00
49367;BME280;35245;52.026;8.540;2024-02-14T02:50:17;53826.44;;;-145.42;100.00
49367;BME280;35245;52.026;8.540;2024-02-14T02:52:45;53909.75;;;-145.42;100.00
49367;BME280;35245;52.026;8.540;2024-02-14T02:55:13;53917.69;;;-145.42;100.00
49367;BME280;35245;52.026;8.540;2024-02-14T02:57:42;53840.31;;;-145.42;100.00
49367;BME280;35245;52.026;8.540;2024-02-14T03:00:12;53689.56;;;-145.42;100.00
49367;BME280;35245;52.026;8.540;2024-02-14T03:02:40;53788.75;;;-145.42;100.00
49367;BME280;35245;52.026;8.540;2024-02-14T03:05:10;54096.22;;;-145.42;100.00
49367;BME280;35245;52.026;8.540;2024-02-14T03:07:44;53897.84;;;-145.42;100.00
49367;BME280;35245;52.026;8.540;2024-02-14T03:10:13;53933.53;;;-145.42;100.00
49367;BME280;35245;52.026;8.540;2024-02-14T03:12:46;53792.72;;;-145.42;100.00
49367;BME280;35245;52.026;8.540;2024-02-14T03:15:14;54048.59;;;-145.42;100.00
49367;BME280;35245;52.026;8.540;2024-02-14T03:17:41;54038.69;;;-145.42;100.00
49367;BME280;35245;52.026;8.540;2024-02-14T03:20:10;54088.28;;;-145.42;100.00
49367;BME280;35245;52.026;8.540;2024-02-14T03:22:39;53753.03;;;-145.42;100.00
49367;BME280;35245;52.026;8.540;2024-02-14T03:25:12;53870.06;;;-145.42;100.00
49367;BME280;35245;52.026;8.540;2024-02-14T03:27:39;53955.38;;;-145.42;100.00
49367;BME280;35245;52.026;8.540;2024-02-14T03:30:09;54016.88;;;-145.42;100.00
49367;BME280;35245;52.026;8.540;2024-02-14T03:32:37;54082.31;;;-145.42;100.00
49367;BME280;35245;52.026;8.540;2024-02-14T03:35:05;53961.31;;;-145.42;100.00
49367;BME280;35245;52.026;8.540;2024-02-14T03:37:32;53842.31;;;-145.42;100.00
49367;BME280;35245;52.026;8.540;2024-02-14T03:39:59;53713.38;;;-145.42;100.00
49367;BME280;35245;52.026;8.540;2024-02-14T03:42:29;54048.59;;;-145.42;100.00
49367;BME280;35245;52.026;8.540;2024-02-14T03:44:56;54106.13;;;-145.42;100.00
49367;BME280;35245;52.026;8.540;2024-02-14T03:47:29;54292.59;;;-145.42;100.00
49367;BME280;35245;52.026;8.540;2024-02-14T03:49:57;54300.53;;;-145.42;100.00
49367;BME280;35245;52.026;8.540;2024-02-14T03:52:25;54506.88;;;-145.42;100.00
49367;BME280;35245;52.026;8.540;2024-02-14T03:54:52;54377.91;;;-145.42;100.00
49367;BME280;35245;52.026;8.540;2024-02-14T03:57:20;54304.50;;;-145.42;100.00
49367;BME280;35245;52.026;8.540;2024-02-14T03:59:47;54375.94;;;-145.42;100.00
49367;BME280;35245;52.026;8.540;2024-02-14T04:02:14;54562.41;;;-145.42;100.00
49367;BME280;35245;52.026;8.540;2024-02-14T04:04:43;54052.56;;;-145.42;100.00
49367;BME280;35245;52.026;8.540;2024-02-14T04:07:12;54159.69;;;-145.42;100.00
49367;BME280;35245;52.026;8.540;2024-02-14T04:09:39;54286.66;;;-145.42;100.00
49367;BME280;35245;52.026;8.540;2024-02-14T04:12:07;54155.72;;;-145.42;100.00
49367;BME280;35245;52.026;8.540;2024-02-14T04:14:36;54028.75;;;-145.42;100.00
49367;BME280;35245;52.026;8.540;2024-02-14T04:17:04;54381.88;;;-145.42;100.00
49367;BME280;35245;52.026;8.540;2024-02-14T04:19:33;54635.81;;;-145.42;100.00
49367;BME280;35245;52.026;8.540;2024-02-14T04:22:02;54842.16;;;-145.42;100.00
49367;BME280;35245;52.026;8.540;2024-02-14T04:24:29;54955.28;;;-145.42;100.00
49367;BME280;35245;52.026;8.540;2024-02-14T04:26:56;55098.13;;;-145.42;100.00
49367;BME280;35245;52.026;8.540;2024-02-14T04:29:23;54735.03;;;-145.42;100.00
49367;BME280;35245;52.026;8.540;2024-02-14T04:31:51;54560.44;;;-145.42;100.00
49367;BME280;35245;52.026;8.540;2024-02-14T04:34:18;54661.63;;;-145.42;100.00
49367;BME280;35245;52.026;8.540;2024-02-14T04:36:45;54994.94;;;-145.42;100.00
49367;BME280;35245;52.026;8.540;2024-02-14T04:39:14;55106.06;;;-145.42;100.00
49367;BME280;35245;52.026;8.540;2024-02-14T04:41:41;54959.25;;;-145.42;100.00
49367;BME280;35245;52.026;8.540;2024-02-14T04:44:08;54546.56;;;-145.42;100.00
49367;BME280;35245;52.026;8.540;2024-02-14T04:46:35;54711.22;;;-145.42;100.00
49367;BME280;35245;52.026;8.540;2024-02-14T04:49:03;54711.22;;;-145.42;100.00
49367;BME280;35245;52.026;8.540;2024-02-14T04:51:30;54790.59;;;-145.42;100.00
49367;BME280;35245;52.026;8.540;2024-02-14T04:53:58;54762.81;;;-145.42;100.00
49367;BME280;35245;52.026;8.540;2024-02-14T04:56:27;54661.63;;;-145.42;100.00
49367;BME280;35245;52.026;8.540;2024-02-14T04:58:54;54951.31;;;-145.42;100.00
49367;BME280;35245;52.026;8.540;2024-02-14T05:01:22;55117.97;;;-145.42;100.00
49367;BME280;35245;52.026;8.540;2024-02-14T05:03:49;55127.91;;;-145.42;100.00
49367;BME280;35245;52.026;8.540;2024-02-14T05:06:16;55207.25;;;-145.42;100.00
49367;BME280;35245;52.026;8.540;2024-02-14T05:08:43;55163.63;;;-145.42;100.00
49367;BME280;35245;52.026;8.540;2024-02-14T05:11:11;55219.16;;;-145.42;100.00
49367;BME280;35245;52.026;8.540;2024-02-14T05:13:39;55270.75;;;-145.42;100.00
49367;BME280;35245;52.026;8.540;2024-02-14T05:16:07;55252.91;;;-145.42;100.00
49367;BME280;35245;52.026;8.540;2024-02-14T05:18:36;55060.44;;;-145.42;100.00
49367;BME280;35245;52.026;8.540;2024-02-14T05:21:06;54786.63;;;-145.42;100.00
49367;BME280;35245;52.026;8.540;2024-02-14T05:23:34;55119.97;;;-145.42;100.00
49367;BME280;35245;52.026;8.540;2024-02-14T05:26:01;54197.38;;;-145.42;100.00
49367;BME280;35245;52.026;8.540;2024-02-14T05:28:29;53739.16;;;-145.42;100.00
49367;BME280;35245;52.026;8.540;2024-02-14T05:30:58;52452.03;;;-145.42;100.00
49367;BME280;35245;52.026;8.540;2024-02-14T05:33:26;49520.38;;;-145.42;100.00
49367;BME280;35245;52.026;8.540;2024-02-14T05:35:53;46739.38;;;-145.42;100.00
49367;BME280;35245;52.026;8.540;2024-02-14T05:38:20;50317.00;;;-145.42;100.00
49367;BME280;35245;52.026;8.540;2024-02-14T05:40:48;54161.69;;;-145.42;100.00
49367;BME280;35245;52.026;8.540;2024-02-14T05:43:15;53935.53;;;-145.42;100.00
49367;BME280;35245;52.026;8.540;2024-02-14T05:45:44;52882.34;;;-145.42;100.00
49367;BME280;35245;52.026;8.540;2024-02-14T05:48:12;53463.44;;;-145.42;100.00
49367;BME280;35245;52.026;8.540;2024-02-14T05:50:40;50986.91;;;-145.42;100.00
49367;BME280;35245;52.026;8.540;2024-02-14T05:53:07;48117.75;;;-145.42;100.00
49367;BME280;35245;52.026;8.540;2024-02-14T05:55:34;31329.09;;;-145.42;100.00
49367;BME280;35245;52.026;8.540;2024-02-14T05:58:01;27796.31;;;-145.42;100.00
49367;BME280;35245;52.026;8.540;2024-02-14T06:00:28;29309.97;;;-145.42;100.00
49367;BME280;35245;52.026;8.540;2024-02-14T06:02:56;28805.34;;;-145.42;100.00
49367;BME280;35245;52.026;8.540;2024-02-14T06:05:24;37645.59;;;-145.42;100.00
49367;BME280;35245;52.026;8.540;2024-02-14T06:07:51;41440.34;;;-145.42;100.00
49367;BME280;35245;52.026;8.540;2024-02-14T06:10:18;22251.22;;;-145.42;100.00
49367;BME280;35245;52.026;8.540;2024-02-14T06:12:45;28048.53;;;-145.42;100.00
49367;BME280;35245;52.026;8.540;2024-02-14T06:15:14;-14100.28;;;-145.42;100.00
49367;BME280;35245;52.026;8.540;2024-02-14T06:17:42;-14100.28;;;-145.42;100.00
49367;BME280;35245;52.026;8.540;2024-02-14T06:20:10;-3855.25;;;-145.42;100.00
49367;BME280;35245;52.026;8.540;2024-02-14T06:22:39;-14100.28;;;-145.42;100.00
49367;BME280;35245;52.026;8.540;2024-02-14T06:25:07;-14100.28;;;-145.42;100.00
49367;BME280;35245;52.026;8.540;2024-02-14T06:27:34;-14100.28;;;-145.42;100.00
49367;BME280;35245;52.026;8.540;2024-02-14T06:30:03;-14100.28;;;-145.42;100.00
49367;BME280;35245;52.026;8.540;2024-02-14T06:32:30;-2854.41;;;-145.42;100.00
49367;BME280;35245;52.026;8.540;2024-02-14T06:34:57;9929.13;;;-145.42;100.00
49367;BME280;35245;52.026;8.540;2024-02-14T06:37:25;11938.22;;;-145.42;100.00
49367;BME280;35245;52.026;8.540;2024-02-14T06:39:53;13697.06;;;-145.42;100.00
49367;BME280;35245;52.026;8.540;2024-02-14T06:42:20;17468.63;;;-145.42;100.00
49367;BME280;35245;52.026;8.540;2024-02-14T06:44:47;15708.09;;;-145.42;100.00
49367;BME280;35245;52.026;8.540;2024-02-14T06:47:15;14702.44;;;-145.42;100.00
49367;BME280;35245;52.026;8.540;2024-02-14T06:49:42;12691.91;;;-145.42;100.00
49367;BME280;35245;52.026;8.540;2024-02-14T06:52:09;12440.69;;;-145.42;100.00
49367;BME280;35245;52.026;8.540;2024-02-14T06:54:36;11435.88;;;-145.42;100.00
49367;BME280;35245;52.026;8.540;2024-02-14T06:57:05;10431.31;;;-145.42;100.00
49367;BME280;35245;52.026;8.540;2024-02-14T06:59:33;9427.03;;;-145.42;100.00
49367;BME280;35245;52.026;8.540;2024-02-14T07:02:02;11687.03;;;-145.42;100.00
49367;BME280;35245;52.026;8.540;2024-02-14T07:04:30;10180.22;;;-145.42;100.00
49367;BME280;35245;52.026;8.540;2024-02-14T07:06:58;14199.72;;;-145.42;100.00
49367;BME280;35245;52.026;8.540;2024-02-14T07:09:26;12189.44;;;-145.42;100.00
49367;BME280;35245;52.026;8.540;2024-02-14T07:11:54;10431.31;;;-145.42;100.00
49367;BME280;35245;52.026;8.540;2024-02-14T07:14:23;12189.44;;;-145.42;100.00
49367;BME280;35245;52.026;8.540;2024-02-14T07:16:50;10431.31;;;-145.42;100.00
49367;BME280;35245;52.026;8.540;2024-02-14T07:19:18;8673.97;;;-145.42;100.00
49367;BME280;35245;52.026;8.540;2024-02-14T07:21:45;15708.09;;;-145.42;100.00
49367;BME280;35245;52.026;8.540;2024-02-14T07:24:12;14199.72;;;-145.42;100.00
49367;BME280;35245;52.026;8.540;2024-02-14T07:26:39;24770.75;;;-145.42;100.00
49367;BME280;35245;52.026;8.540;2024-02-14T07:29:09;23510.78;;;-145.42;100.00
49367;BME280;35245;52.026;8.540;2024-02-14T07:31:37;20740.31;;;-145.42;100.00
49367;BME280;35245;52.026;8.540;2024-02-14T07:34:05;21243.88;;;-145.42;100.00
49367;BME280;35245;52.026;8.540;2024-02-14T07:36:32;19481.63;;;-145.42;100.00
49367;BME280;35245;52.026;8.540;2024-02-14T07:38:59;24770.75;;;-145.42;100.00
49367;BME280;35245;52.026;8.540;2024-02-14T07:41:27;20740.31;;;-145.42;100.00
49367;BME280;35245;52.026;8.540;2024-02-14T07:43:54;16714.03;;;-145.42;100.00
49367;BME280;35245;52.026;8.540;2024-02-14T07:46:22;13194.44;;;-145.42;100.00
49367;BME280;35245;52.026;8.540;2024-02-14T07:48:53;18223.38;;;-145.42;100.00
49367;BME280;35245;52.026;8.540;2024-02-14T07:51:20;19229.97;;;-145.42;100.00
49367;BME280;35245;52.026;8.540;2024-02-14T07:53:49;17720.19;;;-145.42;100.00
49367;BME280;35245;52.026;8.540;2024-02-14T07:56:16;21747.53;;;-145.42;100.00
49367;BME280;35245;52.026;8.540;2024-02-14T07:58:44;23258.84;;;-145.42;100.00
49367;BME280;35245;52.026;8.540;2024-02-14T08:01:11;28048.53;;;-145.42;100.00
49367;BME280;35245;52.026;8.540;2024-02-14T08:03:40;32086.53;;;-145.42;100.00
49367;BME280;35245;52.026;8.540;2024-02-14T08:06:09;13948.38;;;-145.42;100.00
49367;BME280;35245;52.026;8.540;2024-02-14T08:08:36;10431.31;;;-145.42;100.00
49367;BME280;35245;52.026;8.540;2024-02-14T08:11:03;13194.44;;;-145.42;100.00
49367;BME280;35245;52.026;8.540;2024-02-14T08:13:31;13445.75;;;-145.42;100.00
49367;BME280;35245;52.026;8.540;2024-02-14T08:15:58;15708.09;;;-145.42;100.00
49367;BME280;35245;52.026;8.540;2024-02-14T08:18:25;16211.03;;;-145.42;100.00
49367;BME280;35245;52.026;8.540;2024-02-14T08:20:53;17720.19;;;-145.42;100.00
49367;BME280;35245;52.026;8.540;2024-02-14T08:23:21;14953.84;;;-145.42;100.00
49367;BME280;35245;52.026;8.540;2024-02-14T08:25:48;15205.25;;;-145.42;100.00
49367;BME280;35245;52.026;8.540;2024-02-14T08:28:16;17217.09;;;-145.42;100.00
49367;BME280;35245;52.026;8.540;2024-02-14T08:30:44;16462.53;;;-145.42;100.00
49367;BME280;35245;52.026;8.540;2024-02-14T08:33:11;21243.88;;;-145.42;100.00
49367;BME280;35245;52.026;8.540;2024-02-14T08:35:39;17468.63;;;-145.42;100.00
49367;BME280;35245;52.026;8.540;2024-02-14T08:38:06;18978.28;;;-145.42;100.00
49367;BME280;35245;52.026;8.540;2024-02-14T08:40:35;13194.44;;;-145.42;100.00
49367;BME280;35245;52.026;8.540;2024-02-14T08:43:02;13445.75;;;-145.42;100.00
49367;BME280;35245;52.026;8.540;2024-02-14T08:45:30;14702.44;;;-145.42;100.00
49367;BME280;35245;52.026;8.540;2024-02-14T08:47:57;13445.75;;;-145.42;100.00
49367;BME280;35245;52.026;8.540;2024-02-14T08:50:24;11435.88;;;-145.42;100.00
49367;BME280;35245;52.026;8.540;2024-02-14T08:52:51;14451.06;;;-145.42;100.00
49367;BME280;35245;52.026;8.540;2024-02-14T08:55:18;17720.19;;;-145.42;100.00
49367;BME280;35245;52.026;8.540;2024-02-14T08:57:47;21999.38;;;-145.42;100.00
49367;BME280;35245;52.026;8.540;2024-02-14T09:00:15;8673.97;;;-145.42;100.00
49367;BME280;35245;52.026;8.540;2024-02-14T09:02:45;10180.22;;;-145.42;100.00
49367;BME280;35245;52.026;8.540;2024-02-14T09:05:13;7670.13;;;-145.42;100.00
49367;BME280;35245;52.026;8.540;2024-02-14T09:07:42;6917.44;;;-145.42;100.00
49367;BME280;35245;52.026;8.540;2024-02-14T09:10:10;7168.31;;;-145.42;100.00
49367;BME280;35245;52.026;8.540;2024-02-14T09:12:38;7168.31;;;-145.42;100.00
49367;BME280;35245;52.026;8.540;2024-02-14T09:15:09;9427.03;;;-145.42;100.00
49367;BME280;35245;52.026;8.540;2024-02-14T09:17:37;11938.22;;;-145.42;100.00
49367;BME280;35245;52.026;8.540;2024-02-14T09:20:08;7921.06;;;-145.42;100.00
49367;BME280;35245;52.026;8.540;2024-02-14T09:22:35;6666.56;;;-145.42;100.00
49367;BME280;35245;52.026;8.540;2024-02-14T09:25:03;10682.44;;;-145.42;100.00
49367;BME280;35245;52.026;8.540;2024-02-14T09:27:32;11435.88;;;-145.42;100.00
49367;BME280;35245;52.026;8.540;2024-02-14T09:30:01;11435.88;;;-145.42;100.00
49367;BME280;35245;52.026;8.540;2024-02-14T09:32:31;14199.72;;;-145.42;100.00
49367;BME280;35245;52.026;8.540;2024-02-14T09:34:58;12189.44;;;-145.42;100.00
49367;BME280;35245;52.026;8.540;2024-02-14T09:37:26;11938.22;;;-145.42;100.00
49367;BME280;35245;52.026;8.540;2024-02-14T09:39:54;10431.31;;;-145.42;100.00
49367;BME280;35245;52.026;8.540;2024-02-14T09:42:32;9176.00;;;-145.42;100.00
49367;BME280;35245;52.026;8.540;2024-02-14T09:45:07;8924.97;;;-145.42;100.00
49367;BME280;35245;52.026;8.540;2024-02-14T09:47:36;9427.03;;;-145.42;100.00
49367;BME280;35245;52.026;8.540;2024-02-14T09:50:06;10933.56;;;-145.42;100.00
49367;BME280;35245;52.026;8.540;2024-02-14T09:52:37;8924.97;;;-145.42;100.00
49367;BME280;35245;52.026;8.540;2024-02-14T09:55:06;9678.06;;;-145.42;100.00
49367;BME280;35245;52.026;8.540;2024-02-14T09:57:33;7670.13;;;-145.42;100.00
49367;BME280;35245;52.026;8.540;2024-02-14T10:00:01;11184.69;;;-145.42;100.00
49367;BME280;35245;52.026;8.540;2024-02-14T10:02:30;7921.06;;;-145.42;100.00
49367;BME280;35245;52.026;8.540;2024-02-14T10:04:59;10180.22;;;-145.42;100.00
49367;BME280;35245;52.026;8.540;2024-02-14T10:07:26;12440.69;;;-145.42;100.00
49367;BME280;35245;52.026;8.540;2024-02-14T10:09:54;8924.97;;;-145.42;100.00
49367;BME280;35245;52.026;8.540;2024-02-14T10:12:21;7921.06;;;-145.42;100.00
49367;BME280;35245;52.026;8.540;2024-02-14T10:14:48;7670.13;;;-145.42;100.00
49367;BME280;35245;52.026;8.540;2024-02-14T10:17:19;6917.44;;;-145.42;100.00
49367;BME280;35245;52.026;8.540;2024-02-14T10:19:56;6917.44;;;-145.42;100.00
49367;BME280;35245;52.026;8.540;2024-02-14T10:22:31;2905.47;;;-145.42;100.00
49367;BME280;35245;52.026;8.540;2024-02-14T10:24:58;2654.88;;;-145.42;100.00
49367;BME280;35245;52.026;8.540;2024-02-14T10:27:26;3657.41;;;-145.42;100.00
49367;BME280;35245;52.026;8.540;2024-02-14T10:29:56;5161.69;;;-145.42;100.00
49367;BME280;35245;52.026;8.540;2024-02-14T10:32:23;7921.06;;;-145.42;100.00
49367;BME280;35245;52.026;8.540;2024-02-14T10:34:50;3406.75;;;-145.42;100.00
49367;BME280;35245;52.026;8.540;2024-02-14T10:37:18;3156.09;;;-145.42;100.00
49367;BME280;35245;52.026;8.540;2024-02-14T10:39:50;1151.56;;;-145.42;100.00
49367;BME280;35245;52.026;8.540;2024-02-14T10:42:18;6415.72;;;-145.42;100.00
49367;BME280;35245;52.026;8.540;2024-02-14T10:44:46;11184.69;;;-145.42;100.00
49367;BME280;35245;52.026;8.540;2024-02-14T10:47:19;17217.09;;;-145.42;100.00
49367;BME280;35245;52.026;8.540;2024-02-14T10:49:47;15708.09;;;-145.42;100.00
49367;BME280;35245;52.026;8.540;2024-02-14T10:52:16;12440.69;;;-145.42;100.00
49367;BME280;35245;52.026;8.540;2024-02-14T10:54:52;16211.03;;;-145.42;100.00
49367;BME280;35245;52.026;8.540;2024-02-14T10:57:24;20740.31;;;-145.42;100.00
49367;BME280;35245;52.026;8.540;2024-02-14T10:59:53;20236.78;;;-145.42;100.00
49367;BME280;35245;52.026;8.540;2024-02-14T11:02:22;22251.22;;;-145.42;100.00
49367;BME280;35245;52.026;8.540;2024-02-14T11:04:50;26283.22;;;-145.42;100.00
49367;BME280;35245;52.026;8.540;2024-02-14T11:07:20;23258.84;;;-145.42;100.00
49367;BME280;35245;52.026;8.540;2024-02-14T11:10:01;15456.66;;;-145.42;100.00
49367;BME280;35245;52.026;8.540;2024-02-14T11:12:33;15205.25;;;-145.42;100.00
49367;BME280;35245;52.026;8.540;2024-02-14T11:15:09;17720.19;;;-145.42;100.00
49367;BME280;35245;52.026;8.540;2024-02-14T11:17:37;17217.09;;;-145.42;100.00
49367;BME280;35245;52.026;8.540;2024-02-14T11:20:17;17971.78;;;-145.42;100.00
49367;BME280;35245;52.026;8.540;2024-02-14T11:22:54;17971.78;;;-145.42;100.00
49367;BME280;35245;52.026;8.540;2024-02-14T11:25:33;19229.97;;;-145.42;100.00
49367;BME280;35245;52.026;8.540;2024-02-14T11:28:12;15708.09;;;-145.42;100.00
49367;BME280;35245;52.026;8.540;2024-02-14T11:30:40;16965.53;;;-145.42;100.00
49367;BME280;35245;52.026;8.540;2024-02-14T11:33:15;16211.03;;;-145.42;100.00
49367;BME280;35245;52.026;8.540;2024-02-14T11:35:46;15708.09;;;-145.42;100.00
49367;BME280;35245;52.026;8.540;2024-02-14T11:38:13;18475.00;;;-145.42;100.00
49367;BME280;35245;52.026;8.540;2024-02-14T11:40:42;19229.97;;;-145.42;100.00
49367;BME280;35245;52.026;8.540;2024-02-14T11:43:13;21243.88;;;-145.42;100.00
49367;BME280;35245;52.026;8.540;2024-02-14T11:45:41;19229.97;;;-145.42;100.00
49367;BME280;35245;52.026;8.540;2024-02-14T11:48:10;17971.78;;;-145.42;100.00
49367;BME280;35245;52.026;8.540;2024-02-14T11:50:39;17971.78;;;-145.42;100.00
49367;BME280;35245;52.026;8.540;2024-02-14T11:53:07;13697.06;;;-145.42;100.00
49367;BME280;35245;52.026;8.540;2024-02-14T11:55:36;14953.84;;;-145.42;100.00
49367;BME280;35245;52.026;8.540;2024-02-14T11:58:08;12943.19;;;-145.42;100.00
49367;BME280;35245;52.026;8.540;2024-02-14T12:00:37;17720.19;;;-145.42;100.00
49367;BME280;35245;52.026;8.540;2024-02-14T12:03:07;19985.06;;;-145.42;100.00
49367;BME280;35245;52.026;8.540;2024-02-14T12:05:36;19733.34;;;-145.42;100.00
49367;BME280;35245;52.026;8.540;2024-02-14T12:08:05;17217.09;;;-145.42;100.00
49367;BME280;35245;52.026;8.540;2024-02-14T12:10:33;17971.78;;;-145.42;100.00
49367;BME280;35245;52.026;8.540;2024-02-14T12:13:08;19733.34;;;-145.42;100.00
49367;BME280;35245;52.026;8.540;2024-02-14T12:15:39;20992.09;;;-145.42;100.00
49367;BME280;35245;52.026;8.540;2024-02-14T12:18:06;17720.19;;;-145.42;100.00
49367;BME280;35245;52.026;8.540;2024-02-14T12:20:34;20488.53;;;-145.42;100.00
49367;BME280;35245;52.026;8.540;2024-02-14T12:23:03;21999.38;;;-145.42;100.00
49367;BME280;35245;52.026;8.540;2024-02-14T12:25:31;19733.34;;;-145.42;100.00
49367;BME280;35245;52.026;8.540;2024-02-14T12:27:58;24518.72;;;-145.42;100.00
49367;BME280;35245;52.026;8.540;2024-02-14T12:30:43;18978.28;;;-145.42;100.00
49367;BME280;35245;52.026;8.540;2024-02-14T12:33:12;15205.25;;;-145.42;100.00
49367;BME280;35245;52.026;8.540;2024-02-14T12:35:44;13948.38;;;-145.42;100.00